sensor_id;sensor_type;location;lat;lon;timestamp;P1;durP1;ratioP1;P2;durP2;ratioP2
80510;SDS011;69840;53.040;8.600;2023-08-01T00:03:33;7.75;;;3.90;;
80510;SDS011;69840;53.040;8.600;2023-08-01T00:07:46;10.50;;;5.53;;
80510;SDS011;69840;53.040;8.600;2023-08-01T00:11:58;11.68;;;4.32;;
80510;SDS011;69840;53.040;8.600;2023-08-01T00:16:11;8.38;;;4.43;;
80510;SDS011;69840;53.040;8.600;2023-08-01T00:20:23;8.40;;;4.38;;
80510;SDS011;69840;53.040;8.600;2023-08-01T00:24:36;10.10;;;4.88;;
80510;SDS011;69840;53.040;8.600;2023-08-01T00:28:49;6.95;;;4.32;;
80510;SDS011;69840;53.040;8.600;2023-08-01T00:33:02;7.68;;;3.63;;
80510;SDS011;69840;53.040;8.600;2023-08-01T00:37:15;7.88;;;4.03;;
80510;SDS011;69840;53.040;8.600;2023-08-01T00:41:27;9.75;;;4.00;;
80510;SDS011;69840;53.040;8.600;2023-08-01T00:45:40;11.48;;;4.90;;
80510;SDS011;69840;53.040;8.600;2023-08-01T00:49:52;9.73;;;5.00;;
80510;SDS011;69840;53.040;8.600;2023-08-01T00:54:05;9.70;;;5.03;;
80510;SDS011;69840;53.040;8.600;2023-08-01T00:58:18;7.85;;;4.47;;
80510;SDS011;69840;53.040;8.600;2023-08-01T01:02:30;7.03;;;3.78;;
80510;SDS011;69840;53.040;8.600;2023-08-01T01:06:52;10.63;;;4.40;;
80510;SDS011;69840;53.040;8.600;2023-08-01T01:11:12;9.80;;;4.28;;
80510;SDS011;69840;53.040;8.600;2023-08-01T01:15:24;9.88;;;4.95;;
80510;SDS011;69840;53.040;8.600;2023-08-01T01:19:37;13.30;;;5.22;;
80510;SDS011;69840;53.040;8.600;2023-08-01T01:23:50;9.05;;;4.53;;
80510;SDS011;69840;53.040;8.600;2023-08-01T01:28:04;8.20;;;4.72;;
80510;SDS011;69840;53.040;8.600;2023-08-01T01:32:18;11.50;;;4.15;;
80510;SDS011;69840;53.040;8.600;2023-08-01T01:36:32;6.38;;;3.58;;
80510;SDS011;69840;53.040;8.600;2023-08-01T01:40:44;9.98;;;4.28;;
80510;SDS011;69840;53.040;8.600;2023-08-01T01:44:57;8.93;;;3.95;;
80510;SDS011;69840;53.040;8.600;2023-08-01T01:49:10;9.15;;;3.58;;
80510;SDS011;69840;53.040;8.600;2023-08-01T01:53:22;8.50;;;4.47;;
80510;SDS011;69840;53.040;8.600;2023-08-01T01:57:35;10.57;;;4.30;;
80510;SDS011;69840;53.040;8.600;2023-08-01T02:01:48;7.35;;;3.53;;
80510;SDS011;69840;53.040;8.600;2023-08-01T02:06:00;8.63;;;4.05;;
80510;SDS011;69840;53.040;8.600;2023-08-01T02:10:13;7.57;;;3.83;;
80510;SDS011;69840;53.040;8.600;2023-08-01T02:14:26;7.63;;;4.05;;
80510;SDS011;69840;53.040;8.600;2023-08-01T02:18:38;8.80;;;5.10;;
80510;SDS011;69840;53.040;8.600;2023-08-01T02:22:51;7.78;;;3.53;;
80510;SDS011;69840;53.040;8.600;2023-08-01T02:27:04;9.23;;;5.15;;
80510;SDS011;69840;53.040;8.600;2023-08-01T02:31:17;10.75;;;5.07;;
80510;SDS011;69840;53.040;8.600;2023-08-01T02:35:29;10.50;;;4.97;;
80510;SDS011;69840;53.040;8.600;2023-08-01T02:39:43;10.05;;;4.32;;
80510;SDS011;69840;53.040;8.600;2023-08-01T02:43:55;8.73;;;4.70;;
80510;SDS011;69840;53.040;8.600;2023-08-01T02:48:08;9.05;;;4.97;;
80510;SDS011;69840;53.040;8.600;2023-08-01T02:52:21;13.75;;;6.30;;
80510;SDS011;69840;53.040;8.600;2023-08-01T02:56:33;10.65;;;5.50;;
80510;SDS011;69840;53.040;8.600;2023-08-01T03:00:45;13.30;;;6.53;;
80510;SDS011;69840;53.040;8.600;2023-08-01T03:04:58;12.50;;;6.20;;
80510;SDS011;69840;53.040;8.600;2023-08-01T03:09:10;12.90;;;6.75;;
80510;SDS011;69840;53.040;8.600;2023-08-01T03:13:23;14.38;;;7.15;;
80510;SDS011;69840;53.040;8.600;2023-08-01T03:17:35;12.15;;;6.10;;
80510;SDS011;69840;53.040;8.600;2023-08-01T03:21:48;11.45;;;6.53;;
80510;SDS011;69840;53.040;8.600;2023-08-01T03:26:00;13.88;;;5.63;;
80510;SDS011;69840;53.040;8.600;2023-08-01T03:30:13;16.55;;;7.25;;
80510;SDS011;69840;53.040;8.600;2023-08-01T03:34:26;14.73;;;5.97;;
80510;SDS011;69840;53.040;8.600;2023-08-01T03:38:38;17.40;;;7.53;;
80510;SDS011;69840;53.040;8.600;2023-08-01T03:42:50;14.30;;;6.30;;
80510;SDS011;69840;53.040;8.600;2023-08-01T03:47:03;12.00;;;5.38;;
80510;SDS011;69840;53.040;8.600;2023-08-01T03:51:16;15.88;;;5.82;;
80510;SDS011;69840;53.040;8.600;2023-08-01T03:55:29;13.10;;;6.60;;
80510;SDS011;69840;53.040;8.600;2023-08-01T03:59:42;12.27;;;7.82;;
80510;SDS011;69840;53.040;8.600;2023-08-01T04:03:54;18.08;;;6.97;;
80510;SDS011;69840;53.040;8.600;2023-08-01T04:08:07;16.85;;;7.30;;
80510;SDS011;69840;53.040;8.600;2023-08-01T04:12:19;17.73;;;8.50;;
80510;SDS011;69840;53.040;8.600;2023-08-01T04:16:32;17.20;;;7.68;;
80510;SDS011;69840;53.040;8.600;2023-08-01T04:20:45;17.80;;;7.63;;
80510;SDS011;69840;53.040;8.600;2023-08-01T04:24:58;22.00;;;7.40;;
80510;SDS011;69840;53.040;8.600;2023-08-01T04:29:10;14.43;;;7.18;;
80510;SDS011;69840;53.040;8.600;2023-08-01T04:33:23;15.35;;;7.22;;
80510;SDS011;69840;53.040;8.600;2023-08-01T04:37:35;11.82;;;5.53;;
80510;SDS011;69840;53.040;8.600;2023-08-01T04:41:48;9.95;;;4.65;;
80510;SDS011;69840;53.040;8.600;2023-08-01T04:46:00;8.85;;;3.35;;
80510;SDS011;69840;53.040;8.600;2023-08-01T04:50:13;6.65;;;2.33;;
80510;SDS011;69840;53.040;8.600;2023-08-01T04:54:25;7.70;;;2.63;;
80510;SDS011;69840;53.040;8.600;2023-08-01T04:58:38;5.68;;;3.30;;
80510;SDS011;69840;53.040;8.600;2023-08-01T05:02:50;5.32;;;2.70;;
80510;SDS011;69840;53.040;8.600;2023-08-01T05:07:03;12.65;;;4.43;;
80510;SDS011;69840;53.040;8.600;2023-08-01T05:11:16;6.63;;;3.15;;
80510;SDS011;69840;53.040;8.600;2023-08-01T05:15:28;5.28;;;2.88;;
80510;SDS011;69840;53.040;8.600;2023-08-01T05:19:42;5.93;;;3.22;;
80510;SDS011;69840;53.040;8.600;2023-08-01T05:23:55;7.30;;;3.20;;
80510;SDS011;69840;53.040;8.600;2023-08-01T05:28:07;8.07;;;3.40;;
80510;SDS011;69840;53.040;8.600;2023-08-01T05:32:20;6.78;;;3.67;;
80510;SDS011;69840;53.040;8.600;2023-08-01T05:36:32;10.18;;;4.35;;
80510;SDS011;69840;53.040;8.600;2023-08-01T05:40:45;10.05;;;4.13;;
80510;SDS011;69840;53.040;8.600;2023-08-01T05:44:57;9.15;;;4.40;;
80510;SDS011;69840;53.040;8.600;2023-08-01T05:49:10;10.52;;;4.97;;
80510;SDS011;69840;53.040;8.600;2023-08-01T05:53:22;9.48;;;4.97;;
80510;SDS011;69840;53.040;8.600;2023-08-01T05:57:34;11.90;;;5.85;;
80510;SDS011;69840;53.040;8.600;2023-08-01T06:01:47;8.95;;;5.15;;
80510;SDS011;69840;53.040;8.600;2023-08-01T06:05:59;11.30;;;5.95;;
80510;SDS011;69840;53.040;8.600;2023-08-01T06:10:12;13.23;;;5.93;;
80510;SDS011;69840;53.040;8.600;2023-08-01T06:14:24;14.55;;;6.72;;
80510;SDS011;69840;53.040;8.600;2023-08-01T06:18:37;17.52;;;6.93;;
80510;SDS011;69840;53.040;8.600;2023-08-01T06:22:50;13.35;;;6.80;;
80510;SDS011;69840;53.040;8.600;2023-08-01T06:27:02;12.07;;;6.28;;
80510;SDS011;69840;53.040;8.600;2023-08-01T06:31:15;10.57;;;5.55;;
80510;SDS011;69840;53.040;8.600;2023-08-01T06:35:27;10.98;;;5.43;;
80510;SDS011;69840;53.040;8.600;2023-08-01T06:39:40;8.73;;;4.65;;
80510;SDS011;69840;53.040;8.600;2023-08-01T06:43:52;8.55;;;4.88;;
80510;SDS011;69840;53.040;8.600;2023-08-01T06:48:05;7.03;;;4.60;;
80510;SDS011;69840;53.040;8.600;2023-08-01T06:52:17;10.20;;;4.22;;
80510;SDS011;69840;53.040;8.600;2023-08-01T06:56:30;5.75;;;2.35;;
80510;SDS011;69840;53.040;8.600;2023-08-01T07:00:42;4.28;;;2.33;;
80510;SDS011;69840;53.040;8.600;2023-08-01T07:04:56;4.53;;;2.25;;
80510;SDS011;69840;53.040;8.600;2023-08-01T07:09:08;4.25;;;2.10;;
80510;SDS011;69840;53.040;8.600;2023-08-01T07:13:21;4.45;;;2.28;;
80510;SDS011;69840;53.040;8.600;2023-08-01T07:17:34;3.38;;;1.50;;
80510;SDS011;69840;53.040;8.600;2023-08-01T07:21:46;3.28;;;1.88;;
80510;SDS011;69840;53.040;8.600;2023-08-01T07:25:59;2.38;;;1.13;;
80510;SDS011;69840;53.040;8.600;2023-08-01T07:30:12;2.30;;;1.30;;
80510;SDS011;69840;53.040;8.600;2023-08-01T07:34:24;3.08;;;1.02;;
80510;SDS011;69840;53.040;8.600;2023-08-01T07:38:36;1.30;;;1.20;;
80510;SDS011;69840;53.040;8.600;2023-08-01T07:42:50;5.90;;;1.20;;
80510;SDS011;69840;53.040;8.600;2023-08-01T07:47:03;2.60;;;1.15;;
80510;SDS011;69840;53.040;8.600;2023-08-01T07:51:15;5.30;;;1.42;;
80510;SDS011;69840;53.040;8.600;2023-08-01T07:55:28;3.80;;;1.02;;
80510;SDS011;69840;53.040;8.600;2023-08-01T07:59:40;2.00;;;1.13;;
80510;SDS011;69840;53.040;8.600;2023-08-01T08:03:53;3.95;;;1.08;;
80510;SDS011;69840;53.040;8.600;2023-08-01T08:08:06;4.10;;;1.40;;
80510;SDS011;69840;53.040;8.600;2023-08-01T08:12:18;2.00;;;1.70;;
80510;SDS011;69840;53.040;8.600;2023-08-01T08:16:30;2.35;;;1.35;;
80510;SDS011;69840;53.040;8.600;2023-08-01T08:20:44;2.80;;;1.48;;
80510;SDS011;69840;53.040;8.600;2023-08-01T08:24:57;2.55;;;1.42;;
80510;SDS011;69840;53.040;8.600;2023-08-01T08:29:09;4.93;;;2.08;;
80510;SDS011;69840;53.040;8.600;2023-08-01T08:33:22;3.90;;;1.10;;
80510;SDS011;69840;53.040;8.600;2023-08-01T08:37:34;3.75;;;1.15;;
80510;SDS011;69840;53.040;8.600;2023-08-01T08:41:48;8.30;;;1.23;;
80510;SDS011;69840;53.040;8.600;2023-08-01T08:46:03;4.22;;;0.95;;
80510;SDS011;69840;53.040;8.600;2023-08-01T08:50:17;4.82;;;1.08;;
80510;SDS011;69840;53.040;8.600;2023-08-01T08:54:31;1.80;;;0.82;;
80510;SDS011;69840;53.040;8.600;2023-08-01T08:58:43;3.78;;;1.23;;
80510;SDS011;69840;53.040;8.600;2023-08-01T09:02:56;2.75;;;0.88;;
80510;SDS011;69840;53.040;8.600;2023-08-01T09:07:09;2.90;;;0.95;;
80510;SDS011;69840;53.040;8.600;2023-08-01T09:11:23;1.60;;;0.57;;
80510;SDS011;69840;53.040;8.600;2023-08-01T09:15:36;1.30;;;1.17;;
80510;SDS011;69840;53.040;8.600;2023-08-01T09:19:54;1.38;;;0.68;;
80510;SDS011;69840;53.040;8.600;2023-08-01T09:24:11;1.45;;;0.93;;
80510;SDS011;69840;53.040;8.600;2023-08-01T09:28:27;2.97;;;0.90;;
80510;SDS011;69840;53.040;8.600;2023-08-01T09:32:39;1.50;;;0.73;;
80510;SDS011;69840;53.040;8.600;2023-08-01T09:36:59;3.83;;;0.95;;
80510;SDS011;69840;53.040;8.600;2023-08-01T09:41:16;1.98;;;0.85;;
80510;SDS011;69840;53.040;8.600;2023-08-01T09:45:30;1.48;;;1.00;;
80510;SDS011;69840;53.040;8.600;2023-08-01T09:49:48;1.30;;;0.73;;
80510;SDS011;69840;53.040;8.600;2023-08-01T09:54:04;1.15;;;0.77;;
80510;SDS011;69840;53.040;8.600;2023-08-01T09:58:16;1.90;;;0.82;;
80510;SDS011;69840;53.040;8.600;2023-08-01T10:02:32;3.25;;;1.05;;
80510;SDS011;69840;53.040;8.600;2023-08-01T10:06:46;1.55;;;0.82;;
80510;SDS011;69840;53.040;8.600;2023-08-01T10:11:05;1.92;;;0.77;;
80510;SDS011;69840;53.040;8.600;2023-08-01T10:15:17;3.22;;;1.35;;
80510;SDS011;69840;53.040;8.600;2023-08-01T10:19:31;1.83;;;1.08;;
80510;SDS011;69840;53.040;8.600;2023-08-01T10:23:45;4.00;;;1.35;;
80510;SDS011;69840;53.040;8.600;2023-08-01T10:28:00;3.65;;;0.95;;
80510;SDS011;69840;53.040;8.600;2023-08-01T10:32:15;6.68;;;1.08;;
80510;SDS011;69840;53.040;8.600;2023-08-01T10:36:28;1.55;;;1.05;;
80510;SDS011;69840;53.040;8.600;2023-08-01T10:40:41;1.05;;;0.82;;
80510;SDS011;69840;53.040;8.600;2023-08-01T10:44:55;1.63;;;1.02;;
80510;SDS011;69840;53.040;8.600;2023-08-01T10:49:07;2.20;;;1.05;;
80510;SDS011;69840;53.040;8.600;2023-08-01T10:53:20;4.10;;;1.00;;
80510;SDS011;69840;53.040;8.600;2023-08-01T10:57:35;3.63;;;0.93;;
80510;SDS011;69840;53.040;8.600;2023-08-01T11:01:49;1.42;;;0.68;;
80510;SDS011;69840;53.040;8.600;2023-08-01T11:06:03;0.80;;;0.63;;
80510;SDS011;69840;53.040;8.600;2023-08-01T11:10:16;0.95;;;0.57;;
80510;SDS011;69840;53.040;8.600;2023-08-01T11:14:29;1.58;;;0.70;;
80510;SDS011;69840;53.040;8.600;2023-08-01T11:18:44;1.50;;;0.93;;
80510;SDS011;69840;53.040;8.600;2023-08-01T11:22:58;1.95;;;0.80;;
80510;SDS011;69840;53.040;8.600;2023-08-01T11:27:12;1.67;;;1.30;;
80510;SDS011;69840;53.040;8.600;2023-08-01T11:31:24;2.78;;;0.93;;
80510;SDS011;69840;53.040;8.600;2023-08-01T11:35:37;1.58;;;0.65;;
80510;SDS011;69840;53.040;8.600;2023-08-01T11:39:50;2.25;;;1.08;;
80510;SDS011;69840;53.040;8.600;2023-08-01T11:44:04;3.53;;;1.02;;
80510;SDS011;69840;53.040;8.600;2023-08-01T11:48:16;2.60;;;0.55;;
80510;SDS011;69840;53.040;8.600;2023-08-01T11:52:29;4.70;;;1.80;;
80510;SDS011;69840;53.040;8.600;2023-08-01T11:56:42;2.05;;;0.70;;
80510;SDS011;69840;53.040;8.600;2023-08-01T12:01:05;2.30;;;0.50;;
80510;SDS011;69840;53.040;8.600;2023-08-01T12:05:23;0.95;;;0.63;;
80510;SDS011;69840;53.040;8.600;2023-08-01T12:09:36;4.65;;;0.47;;
80510;SDS011;69840;53.040;8.600;2023-08-01T12:13:59;2.22;;;0.80;;
80510;SDS011;69840;53.040;8.600;2023-08-01T12:18:20;1.23;;;0.57;;
80510;SDS011;69840;53.040;8.600;2023-08-01T12:22:50;2.65;;;0.63;;
80510;SDS011;69840;53.040;8.600;2023-08-01T12:27:04;1.38;;;0.32;;
80510;SDS011;69840;53.040;8.600;2023-08-01T12:31:18;2.08;;;0.77;;
80510;SDS011;69840;53.040;8.600;2023-08-01T12:35:31;1.10;;;0.82;;
80510;SDS011;69840;53.040;8.600;2023-08-01T12:39:44;0.60;;;0.40;;
80510;SDS011;69840;53.040;8.600;2023-08-01T12:43:56;1.17;;;0.80;;
80510;SDS011;69840;53.040;8.600;2023-08-01T12:48:09;1.10;;;0.63;;
80510;SDS011;69840;53.040;8.600;2023-08-01T12:52:22;0.85;;;0.47;;
80510;SDS011;69840;53.040;8.600;2023-08-01T12:56:36;1.42;;;0.82;;
80510;SDS011;69840;53.040;8.600;2023-08-01T13:00:49;1.50;;;0.45;;
80510;SDS011;69840;53.040;8.600;2023-08-01T13:05:02;3.55;;;0.80;;
80510;SDS011;69840;53.040;8.600;2023-08-01T13:09:15;3.05;;;1.15;;
80510;SDS011;69840;53.040;8.600;2023-08-01T13:13:28;8.88;;;4.25;;
80510;SDS011;69840;53.040;8.600;2023-08-01T13:17:41;1.77;;;0.88;;
80510;SDS011;69840;53.040;8.600;2023-08-01T13:21:54;1.25;;;0.60;;
80510;SDS011;69840;53.040;8.600;2023-08-01T13:26:07;1.50;;;1.00;;
80510;SDS011;69840;53.040;8.600;2023-08-01T13:30:19;0.98;;;0.77;;
80510;SDS011;69840;53.040;8.600;2023-08-01T13:34:32;1.45;;;0.52;;
80510;SDS011;69840;53.040;8.600;2023-08-01T13:38:44;1.25;;;0.57;;
80510;SDS011;69840;53.040;8.600;2023-08-01T13:42:57;2.10;;;0.80;;
80510;SDS011;69840;53.040;8.600;2023-08-01T13:47:10;1.15;;;0.90;;
80510;SDS011;69840;53.040;8.600;2023-08-01T13:51:22;0.80;;;0.63;;
80510;SDS011;69840;53.040;8.600;2023-08-01T13:55:35;1.77;;;0.70;;
80510;SDS011;69840;53.040;8.600;2023-08-01T13:59:47;2.97;;;0.82;;
80510;SDS011;69840;53.040;8.600;2023-08-01T14:04:03;2.03;;;0.65;;
80510;SDS011;69840;53.040;8.600;2023-08-01T14:08:16;3.70;;;0.82;;
80510;SDS011;69840;53.040;8.600;2023-08-01T14:12:29;1.58;;;0.60;;
80510;SDS011;69840;53.040;8.600;2023-08-01T14:16:41;1.65;;;0.70;;
80510;SDS011;69840;53.040;8.600;2023-08-01T14:20:54;1.40;;;0.50;;
80510;SDS011;69840;53.040;8.600;2023-08-01T14:25:06;3.65;;;1.02;;
80510;SDS011;69840;53.040;8.600;2023-08-01T14:29:19;1.33;;;0.68;;
80510;SDS011;69840;53.040;8.600;2023-08-01T14:33:32;2.75;;;1.10;;
80510;SDS011;69840;53.040;8.600;2023-08-01T14:37:45;3.60;;;0.80;;
80510;SDS011;69840;53.040;8.600;2023-08-01T14:41:57;3.50;;;0.93;;
80510;SDS011;69840;53.040;8.600;2023-08-01T14:46:13;2.97;;;0.98;;
80510;SDS011;69840;53.040;8.600;2023-08-01T14:50:26;2.50;;;1.15;;
80510;SDS011;69840;53.040;8.600;2023-08-01T14:54:38;2.83;;;1.10;;
80510;SDS011;69840;53.040;8.600;2023-08-01T14:58:51;4.45;;;0.80;;
80510;SDS011;69840;53.040;8.600;2023-08-01T15:03:04;3.15;;;0.80;;
80510;SDS011;69840;53.040;8.600;2023-08-01T15:07:16;3.22;;;1.20;;
80510;SDS011;69840;53.040;8.600;2023-08-01T15:11:29;3.42;;;0.95;;
80510;SDS011;69840;53.040;8.600;2023-08-01T15:15:41;3.25;;;0.95;;
80510;SDS011;69840;53.040;8.600;2023-08-01T15:19:53;2.40;;;0.63;;
80510;SDS011;69840;53.040;8.600;2023-08-01T15:24:06;3.65;;;0.85;;
80510;SDS011;69840;53.040;8.600;2023-08-01T15:28:18;2.45;;;0.98;;
80510;SDS011;69840;53.040;8.600;2023-08-01T15:32:31;2.78;;;1.08;;
80510;SDS011;69840;53.040;8.600;2023-08-01T15:36:43;1.75;;;0.95;;
80510;SDS011;69840;53.040;8.600;2023-08-01T15:40:59;4.65;;;1.13;;
80510;SDS011;69840;53.040;8.600;2023-08-01T15:45:12;1.60;;;0.77;;
80510;SDS011;69840;53.040;8.600;2023-08-01T15:49:25;1.98;;;0.77;;
80510;SDS011;69840;53.040;8.600;2023-08-01T15:53:37;1.48;;;1.13;;
80510;SDS011;69840;53.040;8.600;2023-08-01T15:57:50;2.58;;;1.08;;
80510;SDS011;69840;53.040;8.600;2023-08-01T16:02:03;4.20;;;0.63;;
80510;SDS011;69840;53.040;8.600;2023-08-01T16:06:15;1.25;;;0.93;;
80510;SDS011;69840;53.040;8.600;2023-08-01T16:10:28;3.42;;;0.65;;
80510;SDS011;69840;53.040;8.600;2023-08-01T16:14:40;2.30;;;0.65;;
80510;SDS011;69840;53.040;8.600;2023-08-01T16:18:53;2.42;;;0.82;;
80510;SDS011;69840;53.040;8.600;2023-08-01T16:23:05;4.72;;;0.73;;
80510;SDS011;69840;53.040;8.600;2023-08-01T16:27:18;3.83;;;1.08;;
80510;SDS011;69840;53.040;8.600;2023-08-01T16:31:30;2.92;;;0.68;;
80510;SDS011;69840;53.040;8.600;2023-08-01T16:35:43;1.48;;;0.82;;
80510;SDS011;69840;53.040;8.600;2023-08-01T16:39:55;1.25;;;0.82;;
80510;SDS011;69840;53.040;8.600;2023-08-01T16:44:08;2.22;;;1.00;;
80510;SDS011;69840;53.040;8.600;2023-08-01T16:48:20;1.50;;;0.82;;
80510;SDS011;69840;53.040;8.600;2023-08-01T16:52:33;4.35;;;0.77;;
80510;SDS011;69840;53.040;8.600;2023-08-01T16:56:45;1.38;;;0.88;;
80510;SDS011;69840;53.040;8.600;2023-08-01T17:00:58;1.38;;;0.57;;
80510;SDS011;69840;53.040;8.600;2023-08-01T17:05:10;2.42;;;1.20;;
80510;SDS011;69840;53.040;8.600;2023-08-01T17:09:23;2.13;;;0.88;;
80510;SDS011;69840;53.040;8.600;2023-08-01T17:13:35;2.95;;;0.82;;
80510;SDS011;69840;53.040;8.600;2023-08-01T17:17:48;1.30;;;0.75;;
80510;SDS011;69840;53.040;8.600;2023-08-01T17:22:00;1.10;;;0.63;;
80510;SDS011;69840;53.040;8.600;2023-08-01T17:26:13;1.50;;;0.68;;
80510;SDS011;69840;53.040;8.600;2023-08-01T17:30:25;1.98;;;0.85;;
80510;SDS011;69840;53.040;8.600;2023-08-01T17:34:38;2.28;;;0.65;;
80510;SDS011;69840;53.040;8.600;2023-08-01T17:38:50;2.33;;;0.70;;
80510;SDS011;69840;53.040;8.600;2023-08-01T17:43:02;0.90;;;0.50;;
80510;SDS011;69840;53.040;8.600;2023-08-01T17:47:15;0.90;;;0.50;;
80510;SDS011;69840;53.040;8.600;2023-08-01T17:51:27;0.82;;;0.57;;
80510;SDS011;69840;53.040;8.600;2023-08-01T17:55:40;0.90;;;0.68;;
80510;SDS011;69840;53.040;8.600;2023-08-01T17:59:52;0.85;;;0.55;;
80510;SDS011;69840;53.040;8.600;2023-08-01T18:04:05;1.08;;;0.88;;
80510;SDS011;69840;53.040;8.600;2023-08-01T18:08:17;2.28;;;0.47;;
80510;SDS011;69840;53.040;8.600;2023-08-01T18:12:30;0.88;;;0.82;;
80510;SDS011;69840;53.040;8.600;2023-08-01T18:16:42;5.05;;;0.80;;
80510;SDS011;69840;53.040;8.600;2023-08-01T18:20:58;1.65;;;0.80;;
80510;SDS011;69840;53.040;8.600;2023-08-01T18:25:12;1.70;;;0.80;;
80510;SDS011;69840;53.040;8.600;2023-08-01T18:29:25;2.47;;;0.68;;
80510;SDS011;69840;53.040;8.600;2023-08-01T18:33:38;0.73;;;0.63;;
80510;SDS011;69840;53.040;8.600;2023-08-01T18:37:51;2.47;;;1.30;;
80510;SDS011;69840;53.040;8.600;2023-08-01T18:42:03;4.35;;;0.73;;
80510;SDS011;69840;53.040;8.600;2023-08-01T18:46:16;1.52;;;0.85;;
80510;SDS011;69840;53.040;8.600;2023-08-01T18:50:31;5.03;;;1.35;;
80510;SDS011;69840;53.040;8.600;2023-08-01T18:54:48;2.20;;;1.17;;
80510;SDS011;69840;53.040;8.600;2023-08-01T18:59:02;5.68;;;1.05;;
80510;SDS011;69840;53.040;8.600;2023-08-01T19:03:14;2.35;;;0.75;;
80510;SDS011;69840;53.040;8.600;2023-08-01T19:07:27;3.30;;;1.15;;
80510;SDS011;69840;53.040;8.600;2023-08-01T19:11:39;5.53;;;1.60;;
80510;SDS011;69840;53.040;8.600;2023-08-01T19:15:54;4.00;;;1.83;;
80510;SDS011;69840;53.040;8.600;2023-08-01T19:20:06;4.25;;;1.88;;
80510;SDS011;69840;53.040;8.600;2023-08-01T19:24:19;2.63;;;1.00;;
80510;SDS011;69840;53.040;8.600;2023-08-01T19:28:31;1.48;;;1.08;;
80510;SDS011;69840;53.040;8.600;2023-08-01T19:32:44;1.38;;;1.20;;
80510;SDS011;69840;53.040;8.600;2023-08-01T19:36:57;1.92;;;0.98;;
80510;SDS011;69840;53.040;8.600;2023-08-01T19:41:09;8.02;;;1.33;;
80510;SDS011;69840;53.040;8.600;2023-08-01T19:45:22;2.85;;;1.02;;
80510;SDS011;69840;53.040;8.600;2023-08-01T19:49:34;2.17;;;1.45;;
80510;SDS011;69840;53.040;8.600;2023-08-01T19:53:46;1.98;;;1.02;;
80510;SDS011;69840;53.040;8.600;2023-08-01T19:57:59;5.80;;;1.70;;
80510;SDS011;69840;53.040;8.600;2023-08-01T20:02:12;2.13;;;1.33;;
80510;SDS011;69840;53.040;8.600;2023-08-01T20:06:24;3.15;;;1.13;;
80510;SDS011;69840;53.040;8.600;2023-08-01T20:10:37;4.72;;;1.20;;
80510;SDS011;69840;53.040;8.600;2023-08-01T20:14:50;2.65;;;1.45;;
80510;SDS011;69840;53.040;8.600;2023-08-01T20:19:02;4.63;;;1.48;;
80510;SDS011;69840;53.040;8.600;2023-08-01T20:23:15;4.90;;;1.77;;
80510;SDS011;69840;53.040;8.600;2023-08-01T20:27:27;5.10;;;1.42;;
80510;SDS011;69840;53.040;8.600;2023-08-01T20:31:40;3.20;;;1.02;;
80510;SDS011;69840;53.040;8.600;2023-08-01T20:35:56;2.95;;;1.45;;
80510;SDS011;69840;53.040;8.600;2023-08-01T20:40:09;6.45;;;2.20;;
80510;SDS011;69840;53.040;8.600;2023-08-01T20:44:22;2.97;;;1.52;;
80510;SDS011;69840;53.040;8.600;2023-08-01T20:48:34;4.60;;;1.45;;
80510;SDS011;69840;53.040;8.600;2023-08-01T20:52:47;2.65;;;1.80;;
80510;SDS011;69840;53.040;8.600;2023-08-01T20:57:00;6.13;;;1.75;;
80510;SDS011;69840;53.040;8.600;2023-08-01T21:01:12;2.30;;;1.23;;
80510;SDS011;69840;53.040;8.600;2023-08-01T21:05:25;5.45;;;1.83;;
80510;SDS011;69840;53.040;8.600;2023-08-01T21:09:37;3.00;;;1.42;;
80510;SDS011;69840;53.040;8.600;2023-08-01T21:13:50;2.55;;;1.65;;
80510;SDS011;69840;53.040;8.600;2023-08-01T21:18:03;2.58;;;1.50;;
80510;SDS011;69840;53.040;8.600;2023-08-01T21:22:15;2.72;;;1.50;;
80510;SDS011;69840;53.040;8.600;2023-08-01T21:26:29;4.60;;;1.92;;
80510;SDS011;69840;53.040;8.600;2023-08-01T21:30:41;2.85;;;1.75;;
80510;SDS011;69840;53.040;8.600;2023-08-01T21:34:56;3.20;;;1.75;;
80510;SDS011;69840;53.040;8.600;2023-08-01T21:39:08;4.70;;;2.03;;
80510;SDS011;69840;53.040;8.600;2023-08-01T21:43:21;3.83;;;1.55;;
80510;SDS011;69840;53.040;8.600;2023-08-01T21:47:34;5.53;;;1.63;;
80510;SDS011;69840;53.040;8.600;2023-08-01T21:51:46;2.60;;;1.65;;
80510;SDS011;69840;53.040;8.600;2023-08-01T21:55:59;2.03;;;1.33;;
80510;SDS011;69840;53.040;8.600;2023-08-01T22:00:12;3.60;;;1.10;;
80510;SDS011;69840;53.040;8.600;2023-08-01T22:04:26;2.25;;;1.60;;
80510;SDS011;69840;53.040;8.600;2023-08-01T22:08:39;2.72;;;1.13;;
80510;SDS011;69840;53.040;8.600;2023-08-01T22:12:51;7.95;;;1.63;;
80510;SDS011;69840;53.040;8.600;2023-08-01T22:17:05;6.70;;;1.70;;
80510;SDS011;69840;53.040;8.600;2023-08-01T22:21:18;3.00;;;1.85;;
80510;SDS011;69840;53.040;8.600;2023-08-01T22:25:30;2.53;;;1.65;;
80510;SDS011;69840;53.040;8.600;2023-08-01T22:29:43;3.08;;;1.40;;
80510;SDS011;69840;53.040;8.600;2023-08-01T22:33:55;4.90;;;2.17;;
80510;SDS011;69840;53.040;8.600;2023-08-01T22:38:08;3.70;;;1.67;;
80510;SDS011;69840;53.040;8.600;2023-08-01T22:42:20;3.70;;;1.85;;
80510;SDS011;69840;53.040;8.600;2023-08-01T22:46:33;2.60;;;1.63;;
80510;SDS011;69840;53.040;8.600;2023-08-01T22:50:45;3.67;;;1.45;;
80510;SDS011;69840;53.040;8.600;2023-08-01T22:54:59;11.00;;;1.67;;
80510;SDS011;69840;53.040;8.600;2023-08-01T22:59:11;2.40;;;1.27;;
80510;SDS011;69840;53.040;8.600;2023-08-01T23:03:24;5.60;;;1.60;;
80510;SDS011;69840;53.040;8.600;2023-08-01T23:07:36;8.05;;;1.83;;
80510;SDS011;69840;53.040;8.600;2023-08-01T23:11:49;3.42;;;2.25;;
80510;SDS011;69840;53.040;8.600;2023-08-01T23:16:01;6.07;;;2.25;;
80510;SDS011;69840;53.040;8.600;2023-08-01T23:20:14;4.20;;;1.85;;
80510;SDS011;69840;53.040;8.600;2023-08-01T23:24:27;3.58;;;1.65;;
80510;SDS011;69840;53.040;8.600;2023-08-01T23:28:39;4.57;;;1.90;;
80510;SDS011;69840;53.040;8.600;2023-08-01T23:32:52;4.30;;;1.80;;
80510;SDS011;69840;53.040;8.600;2023-08-01T23:47:09;2.72;;;1.38;;
80510;SDS011;69840;53.040;8.600;2023-08-01T23:51:21;3.45;;;1.42;;
80510;SDS011;69840;53.040;8.600;2023-08-01T23:55:34;1.63;;;1.35;;
80510;SDS011;69840;53.040;8.600;2023-08-01T23:59:46;4.88;;;2.17;;
